Time;durP1;ratioP1;P1;durP2;ratioP2;P2;SDS_P1;SDS_P2;PMS_P1;PMS_P2;Temp;Humidity;BMP_temperature;BMP_pressure;BME280_temperature;BME280_humidity;BME280_pressure;Samples;Min_cycle;Max_cycle;Signal;HPM_P1;HPM_P2
2022/03/04 00:02:17;;;;;;;150.47;60.63;;;;;;;4.28;71.90;99162.72;5036795;28;20640;-91
2022/03/04 00:04:43;;;;;;;120.13;52.80;;;;;;;2.04;73.02;98782.84;5021832;28;20613;-91
2022/03/04 00:07:08;;;;;;;71.77;35.70;;;;;;;2.76;73.92;98938.34;5035122;28;20157;-91
2022/03/04 00:09:34;;;;;;;70.27;33.03;;;;;;;3.63;74.89;99117.50;5040119;28;20177;-91
2022/03/04 00:12:03;;;;;;;48.50;24.60;;;;;;;2.71;75.25;98959.66;5047151;28;20198;-92
2022/03/04 00:14:29;;;;;;;59.47;27.53;;;;;;;3.94;76.19;99167.19;5040524;28;20229;-93
2022/03/04 00:16:55;;;;;;;61.83;27.97;;;;;;;-0.95;77.09;98351.28;5022214;28;20437;-93
2022/03/04 00:19:21;;;;;;;51.03;25.10;;;;;;;0.12;77.79;98550.31;5022342;28;20416;-93
2022/03/04 00:21:49;;;;;;;53.10;26.77;;;;;;;2.23;78.35;98897.28;5020894;28;20693;-92
2022/03/04 00:24:22;;;;;;;58.57;28.03;;;;;;;3.61;79.92;99181.63;5020867;28;20628;-92
2022/03/04 00:26:48;;;;;;;60.10;29.77;;;;;;;-0.41;79.71;98483.53;5036602;28;20401;-93
2022/03/04 00:29:15;;;;;;;66.97;32.23;;;;;;;3.41;81.34;99145.25;5024740;28;20404;-92
2022/03/04 00:31:41;;;;;;;59.03;30.37;;;;;;;1.82;81.66;98881.13;5020259;28;20472;-93
2022/03/04 00:34:07;;;;;;;62.80;30.97;;;;;;;1.12;82.28;98774.03;5018929;28;20504;-92
2022/03/04 00:36:33;;;;;;;62.90;30.57;;;;;;;3.29;82.52;99150.31;5035509;28;20946;-92
2022/03/04 00:39:00;;;;;;;65.07;31.03;;;;;;;1.57;82.15;98837.03;5018869;28;20464;-93
2022/03/04 00:41:26;;;;;;;58.63;29.77;;;;;;;1.99;82.46;98908.09;5018698;28;20550;-92
2022/03/04 00:43:52;;;;;;;63.77;30.13;;;;;;;3.57;82.59;99178.06;5019182;28;20409;-93
2022/03/04 00:46:18;;;;;;;67.00;31.57;;;;;;;-0.03;81.60;98527.72;5036784;28;20194;-93
2022/03/04 00:48:45;;;;;;;62.20;30.73;;;;;;;1.56;80.84;98782.06;5037813;28;20408;-93
2022/03/04 00:51:14;;;;;;;61.70;29.60;;;;;;;3.77;79.94;99160.22;5018929;28;20449;-93
2022/03/04 00:53:40;;;;;;;67.37;31.10;;;;;;;-0.08;79.84;98531.50;5019095;28;20407;-93
2022/03/04 00:56:07;;;;;;;68.47;30.30;;;;;;;1.10;79.66;98730.66;5018834;28;20504;-93
2022/03/04 00:58:34;;;;;;;65.80;30.57;;;;;;;0.38;80.14;98612.75;5018932;28;20496;-92
2022/03/04 01:00:59;;;;;;;60.97;29.23;;;;;;;3.66;80.55;99168.63;5052154;28;20904;-91
2022/03/04 01:03:25;;;;;;;65.10;29.83;;;;;;;2.12;80.86;98920.66;5017960;28;20401;-91
2022/03/04 01:05:51;;;;;;;62.17;28.87;;;;;;;3.50;81.30;99151.75;5018639;28;20170;-93
2022/03/04 01:08:18;;;;;;;64.03;29.97;;;;;;;3.46;81.87;99152.28;5021571;28;20265;-92
2022/03/04 01:10:43;;;;;;;59.07;29.70;;;;;;;0.51;82.24;98644.34;5019238;28;20416;-93
2022/03/04 01:13:09;;;;;;;64.17;30.40;;;;;;;3.44;83.34;99152.97;5018257;28;20409;-92
2022/03/04 01:15:35;;;;;;;67.00;31.13;;;;;;;2.91;83.76;99066.84;5053991;28;20170;-92
2022/03/04 01:18:01;;;;;;;72.57;34.10;;;;;;;3.32;84.95;99164.66;5055016;28;20166;-91
2022/03/04 01:20:26;;;;;;;67.83;32.87;;;;;;;1.79;84.96;98910.09;5039395;28;20408;-90
2022/03/04 01:22:52;;;;;;;80.70;31.70;;;;;;;1.92;84.66;98898.47;5040603;28;20637;-92
2022/03/04 01:25:17;;;;;;;112.90;41.00;;;;;;;0.70;86.22;98768.50;5023954;28;20237;-92
2022/03/04 01:27:43;;;;;;;90.30;36.43;;;;;;;0.43;87.52;98760.81;5022305;28;20166;-93
2022/03/04 01:30:10;;;;;;;88.00;37.87;;;;;;;1.55;87.21;98885.94;5050823;28;20232;-94
2022/03/04 01:32:39;;;;;;;76.27;34.13;;;;;;;1.55;86.93;98878.47;5017802;28;20200;-93
2022/03/04 01:35:08;;;;;;;111.43;44.43;;;;;;;-1.22;85.84;98370.94;5018584;28;20500;-92
2022/03/04 01:37:35;;;;;;;225.80;76.87;;;;;;;-0.21;86.17;98545.47;5041259;28;20420;-91
2022/03/04 01:40:02;;;;;;;164.70;61.03;;;;;;;2.25;86.19;98975.69;5037212;28;20480;-91
2022/03/04 01:42:27;;;;;;;101.33;41.70;;;;;;;3.25;86.14;99155.84;5023515;28;20413;-92
2022/03/04 01:44:53;;;;;;;85.73;38.93;;;;;;;1.40;86.79;98827.50;5050494;28;20415;-92
2022/03/04 01:47:18;;;;;;;87.60;37.80;;;;;;;1.64;87.21;98894.06;5016929;28;20719;-90
2022/03/04 01:49:44;;;;;;;78.13;35.30;;;;;;;1.75;86.10;98889.84;5050878;28;20181;-93
2022/03/04 01:52:10;;;;;;;72.13;32.27;;;;;;;0.51;87.44;98717.41;5017844;28;20646;-92
2022/03/04 01:54:36;;;;;;;67.73;30.83;;;;;;;2.92;86.86;99116.06;5017731;28;20172;-92
2022/03/04 01:57:01;;;;;;;83.03;38.17;;;;;;;0.99;88.58;98838.72;5034476;28;20185;-92
2022/03/04 01:59:27;;;;;;;85.00;36.37;;;;;;;2.64;89.01;99100.78;5016921;28;20177;-92
2022/03/04 02:01:53;;;;;;;77.47;34.83;;;;;;;1.30;89.27;98837.59;5017758;28;20562;-93
2022/03/04 02:04:23;;;;;;;94.13;40.93;;;;;;;1.76;88.66;98934.84;5017572;28;20405;-92
2022/03/04 02:06:49;;;;;;;97.67;40.20;;;;;;;2.76;88.89;99119.16;5016602;28;20173;-92
2022/03/04 02:09:15;;;;;;;99.63;41.23;;;;;;;0.36;88.81;98691.41;5019076;28;20416;-92
2022/03/04 02:11:43;;;;;;;102.40;41.83;;;;;;;2.69;88.96;99101.97;5019630;28;20256;-91
2022/03/04 02:14:12;;;;;;;104.43;44.10;;;;;;;1.07;89.14;98817.69;5031999;28;20424;-93
2022/03/04 02:16:45;;;;;;;110.23;46.03;;;;;;;2.51;90.18;99060.75;5016098;28;20405;-92
2022/03/04 02:19:10;;;;;;;122.67;49.80;;;;;;;1.58;90.42;98916.09;5015678;28;20863;-92
2022/03/04 02:21:36;;;;;;;105.97;44.57;;;;;;;-1.32;90.01;98412.34;5049706;28;20480;-92
2022/03/04 02:24:02;;;;;;;94.70;41.07;;;;;;;1.59;90.66;98932.78;5020663;28;20626;-92
2022/03/04 02:26:27;;;;;;;100.30;42.03;;;;;;;2.63;90.53;99100.69;5016071;28;20172;-91
2022/03/04 02:28:53;;;;;;;108.37;43.40;;;;;;;0.03;90.00;98661.63;5016057;28;20488;-92
2022/03/04 02:31:20;;;;;;;114.23;48.33;;;;;;;0.11;91.02;98737.66;5015650;28;20617;-91
2022/03/04 02:33:47;;;;;;;122.47;49.43;;;;;;;2.26;92.28;99092.25;5048821;28;20614;-92
2022/03/04 02:36:13;;;;;;;99.73;42.70;;;;;;;1.70;93.26;99040.81;5016125;28;20931;-92
2022/03/04 02:38:38;;;;;;;112.17;47.43;;;;;;;-0.67;92.92;98634.13;5020575;28;20406;-92
2022/03/04 02:41:05;;;;;;;88.50;39.10;;;;;;;1.88;93.64;99099.53;5039251;28;20230;-91
2022/03/04 02:43:31;;;;;;;77.10;32.90;;;;;;;1.55;94.58;99035.59;5034355;28;20200;-92
2022/03/04 02:45:57;;;;;;;90.27;39.73;;;;;;;1.78;95.73;99088.03;5019800;28;20416;-92
2022/03/04 02:48:22;;;;;;;108.37;42.93;;;;;;;-1.02;95.95;98682.78;5015806;28;20401;-91
2022/03/04 02:50:48;;;;;;;71.20;31.53;;;;;;;-0.50;95.86;98751.31;5015072;28;20264;-92
2022/03/04 02:53:13;;;;;;;90.40;39.50;;;;;;;0.70;96.32;98987.66;5014784;28;20257;-92
2022/03/04 02:55:39;;;;;;;116.87;51.27;;;;;;;0.40;95.83;98921.50;5015443;28;20182;-92
2022/03/04 02:58:05;;;;;;;98.17;41.93;;;;;;;-1.83;94.76;98524.28;5014863;28;20178;-92
2022/03/04 03:00:31;;;;;;;85.83;36.77;;;;;;;1.31;94.93;99081.19;5015497;28;20170;-92
2022/03/04 03:02:56;;;;;;;66.43;30.93;;;;;;;1.03;94.87;99005.13;5014364;28;20625;-92
2022/03/04 03:05:22;;;;;;;66.30;29.40;;;;;;;0.09;93.87;98848.66;5014312;28;20430;-91
2022/03/04 03:07:47;;;;;;;57.93;28.20;;;;;;;0.24;93.81;98872.22;5014445;28;20268;-92
2022/03/04 03:10:13;;;;;;;60.30;28.57;;;;;;;0.00;93.93;98872.88;5014292;28;20261;-92
2022/03/04 03:12:40;;;;;;;51.77;23.70;;;;;;;0.59;94.24;98975.28;5014277;28;20221;-93
2022/03/04 03:15:06;;;;;;;50.80;23.90;;;;;;;1.10;94.41;99112.84;5030288;28;20202;-93
2022/03/04 03:17:32;;;;;;;49.73;23.23;;;;;;;-1.38;94.62;98657.59;5014423;28;20409;-92
2022/03/04 03:19:57;;;;;;;56.00;24.70;;;;;;;1.30;95.27;99126.81;5035834;28;20538;-92
2022/03/04 03:22:23;;;;;;;50.83;24.67;;;;;;;-1.82;94.64;98599.56;5014375;28;20630;-92
2022/03/04 03:24:49;;;;;;;61.93;28.73;;;;;;;1.05;95.04;99063.41;5016704;28;20255;-92
2022/03/04 03:27:15;;;;;;;55.37;26.43;;;;;;;-1.24;94.89;98701.72;5016178;28;20222;-93
2022/03/04 03:29:41;;;;;;;61.10;28.53;;;;;;;1.43;95.14;99108.66;5015781;28;20166;-91
2022/03/04 03:32:07;;;;;;;54.53;25.17;;;;;;;-0.11;94.98;98909.34;5015062;28;20452;-92
2022/03/04 03:34:33;;;;;;;61.37;27.97;;;;;;;0.59;95.91;99034.19;5014339;28;20952;-92
2022/03/04 03:36:58;;;;;;;56.00;25.73;;;;;;;1.20;96.50;99129.38;5027776;28;20401;-91
2022/03/04 03:39:23;;;;;;;59.50;26.83;;;;;;;1.13;96.63;99152.94;5027824;28;20571;-91
2022/03/04 03:41:49;;;;;;;54.77;25.77;;;;;;;0.77;96.49;99052.16;5032568;28;20261;-92
2022/03/04 03:44:14;;;;;;;59.40;27.10;;;;;;;-2.85;96.11;98427.84;5015057;28;20174;-93
2022/03/04 03:46:40;;;;;;;60.37;27.17;;;;;;;1.13;96.67;99137.13;5014765;28;20181;-92
2022/03/04 03:49:05;;;;;;;53.27;25.37;;;;;;;0.88;96.75;99062.16;5014703;28;20261;-92
2022/03/04 03:51:33;;;;;;;59.07;27.70;;;;;;;1.13;96.73;99109.72;5014675;28;20194;-93
2022/03/04 03:53:59;;;;;;;58.00;27.90;;;;;;;1.12;97.44;99160.34;5014417;28;20166;-92
2022/03/04 03:56:24;;;;;;;56.60;27.27;;;;;;;-1.44;97.85;98715.06;5014830;28;20181;-93
2022/03/04 03:58:49;;;;;;;56.07;26.97;;;;;;;1.25;97.39;99137.19;5030868;28;20178;-93
2022/03/04 04:01:15;;;;;;;56.43;25.43;;;;;;;-1.45;97.05;98723.25;5018257;28;20265;-92
2022/03/04 04:03:40;;;;;;;58.30;26.97;;;;;;;-1.80;98.67;98656.00;5030889;28;20223;-94
2022/03/04 04:06:07;;;;;;;55.90;25.67;;;;;;;1.15;98.24;99136.47;5032589;28;20708;-93
2022/03/04 04:08:32;;;;;;;64.47;28.55;;;;;;;-0.07;97.64;98948.63;5031075;28;20256;-93
2022/03/04 04:10:58;;;;;;;64.07;29.63;;;;;;;-0.13;98.72;98925.78;5031108;28;20178;-92
2022/03/04 04:13:23;;;;;;;99.30;45.30;;;;;;;-1.61;97.52;98675.66;5016615;28;20259;-93
2022/03/04 04:15:49;;;;;;;58.27;27.50;;;;;;;-1.43;97.61;98761.47;5024779;28;20170;-93
2022/03/04 04:18:15;;;;;;;55.37;25.53;;;;;;;0.42;99.18;99035.38;5019987;28;20214;-93
2022/03/04 04:20:40;;;;;;;83.93;34.90;;;;;;;-0.44;97.67;98863.63;5017450;28;20178;-92
2022/03/04 04:23:05;;;;;;;80.70;39.20;;;;;;;0.90;97.89;99077.22;5029257;28;20209;-92
2022/03/04 04:25:31;;;;;;;69.57;29.10;;;;;;;0.87;97.39;99106.88;5019065;28;20170;-89
2022/03/04 04:27:56;;;;;;;55.67;24.43;;;;;;;-0.04;96.70;98915.66;5021352;28;20170;-91
2022/03/04 04:30:22;;;;;;;51.23;24.17;;;;;;;-0.36;95.75;98870.06;5020545;28;20174;-93
2022/03/04 04:32:47;;;;;;;62.70;29.67;;;;;;;-2.10;95.21;98563.44;5018215;28;20256;-92
2022/03/04 04:35:13;;;;;;;53.77;24.77;;;;;;;-1.47;94.85;98686.66;5017786;28;20190;-93
2022/03/04 04:37:38;;;;;;;51.77;22.53;;;;;;;-1.47;94.82;98713.94;5018970;28;20622;-94
2022/03/04 04:40:04;;;;;;;51.90;23.50;;;;;;;0.86;96.39;99110.13;5033630;28;20682;-92
2022/03/04 04:42:30;;;;;;;47.72;23.25;;;;;;;0.40;96.60;99021.09;5017505;28;20200;-93
2022/03/04 04:44:56;;;;;;;47.92;22.17;;;;;;;-0.30;96.29;98908.69;5033720;28;20178;-92
2022/03/04 04:47:21;;;;;;;49.53;22.77;;;;;;;0.57;96.63;99061.47;5017715;28;20174;-93
2022/03/04 04:49:47;;;;;;;47.60;23.90;;;;;;;0.85;95.65;99078.50;5021853;28;20216;-92
2022/03/04 04:52:13;;;;;;;47.23;21.80;;;;;;;-1.34;93.82;98722.47;5039548;28;20228;-92
2022/03/04 04:54:38;;;;;;;47.07;21.90;;;;;;;-0.57;95.34;98878.31;5036037;28;20174;-93
2022/03/04 04:57:04;;;;;;;42.97;20.40;;;;;;;-0.18;95.38;98943.56;5018589;28;20244;-92
2022/03/04 04:59:29;;;;;;;46.30;22.70;;;;;;;-1.57;94.94;98687.56;5016894;28;20606;-92
2022/03/04 05:01:55;;;;;;;51.47;23.83;;;;;;;1.03;95.10;99097.31;5017118;28;20202;-92
2022/03/04 05:04:20;;;;;;;48.87;22.20;;;;;;;1.26;95.03;99144.78;5017331;28;20645;-92
2022/03/04 05:06:46;;;;;;;48.07;22.47;;;;;;;1.24;94.39;99136.31;5017200;28;20170;-92
2022/03/04 05:09:11;;;;;;;51.27;25.30;;;;;;;1.09;95.22;99162.59;5018696;28;20323;-91
2022/03/04 05:11:36;;;;;;;53.27;25.47;;;;;;;-1.50;95.12;98709.63;5040093;28;20292;-92
2022/03/04 05:14:02;;;;;;;59.57;28.63;;;;;;;-0.73;97.38;98896.16;5039625;28;20261;-92
2022/03/04 05:16:28;;;;;;;50.33;24.37;;;;;;;-0.66;98.13;98928.22;5018382;28;20184;-93
2022/03/04 05:18:53;;;;;;;64.25;28.58;;;;;;;-0.80;97.23;98841.78;5016862;28;20182;-93
2022/03/04 05:21:19;;;;;;;47.97;23.20;;;;;;;0.48;96.43;99039.97;5017241;28;20608;-92
2022/03/04 05:23:59;;;;;;;44.00;20.80;;;;;;;-0.29;96.69;98991.59;5035220;28;20170;-92
2022/03/04 05:26:36;;;;;;;45.47;22.08;;;;;;;0.67;97.80;99160.16;5034474;28;20166;-93
2022/03/04 05:29:04;;;;;;;53.53;24.80;;;;;;;-0.61;97.59;98897.13;5017270;28;20170;-93
2022/03/04 05:31:30;;;;;;;56.13;26.23;;;;;;;0.03;97.39;98989.16;5034131;28;20198;-93
2022/03/04 05:33:56;;;;;;;84.70;33.23;;;;;;;-1.32;96.18;98700.28;5025694;28;20178;-92
2022/03/04 05:36:22;;;;;;;46.80;21.73;;;;;;;-2.35;96.50;98580.47;5025613;28;20819;-93
2022/03/04 05:38:49;;;;;;;41.72;20.42;;;;;;;-0.89;96.55;98827.00;5035608;28;20229;-91
2022/03/04 05:41:18;;;;;;;48.90;23.13;;;;;;;-1.83;97.34;98707.81;5063025;28;20228;-92
2022/03/04 05:43:45;;;;;;;52.72;23.13;;;;;;;-0.62;97.67;98881.34;5056105;28;20341;-92
2022/03/04 05:46:11;;;;;;;59.67;26.90;;;;;;;-0.53;97.79;98949.91;5037015;28;20182;-93
2022/03/04 05:48:37;;;;;;;52.43;26.37;;;;;;;-1.23;96.84;98780.41;5041682;28;20182;-92
2022/03/04 05:51:03;;;;;;;46.40;21.60;;;;;;;1.07;95.83;99171.56;5046409;28;20189;-91
2022/03/04 05:53:30;;;;;;;42.97;18.65;;;;;;;0.34;95.22;99020.59;5044112;28;20176;-91
2022/03/04 05:55:55;;;;;;;47.88;22.65;;;;;;;-0.78;95.77;98873.44;5038678;28;20173;-92
2022/03/04 05:58:21;;;;;;;60.17;28.30;;;;;;;-1.13;95.21;98768.00;5038484;28;20631;-93
2022/03/04 06:00:46;;;;;;;71.20;29.07;;;;;;;0.09;93.58;98938.22;5057997;28;20640;-91
2022/03/04 06:03:12;;;;;;;49.97;21.80;;;;;;;-1.79;92.36;98609.72;5060045;28;20261;-91
2022/03/04 06:05:37;;;;;;;41.43;20.67;;;;;;;1.59;90.32;99187.19;5049067;28;20943;-92
2022/03/04 06:08:03;;;;;;;51.37;22.20;;;;;;;-0.67;90.34;98795.63;5034523;28;20166;-92
2022/03/04 06:10:28;;;;;;;43.50;20.93;;;;;;;1.60;90.47;99198.91;5053946;28;20261;-92
2022/03/04 06:12:54;;;;;;;58.20;28.77;;;;;;;-1.44;90.13;98645.59;5050063;28;20228;-92
2022/03/04 06:15:19;;;;;;;42.53;21.20;;;;;;;0.44;89.62;98930.97;5032781;28;20181;-92
2022/03/04 06:17:49;;;;;;;47.77;22.90;;;;;;;1.88;89.24;99136.06;5032557;28;20563;-92
2022/03/04 06:20:16;;;;;;;45.93;22.30;;;;;;;1.76;88.04;99131.94;5042229;28;20692;-92
2022/03/04 06:22:41;;;;;;;57.60;28.97;;;;;;;2.26;87.78;99182.16;5035820;28;20415;-93
2022/03/04 06:25:07;;;;;;;56.17;29.50;;;;;;;2.01;86.31;99074.69;5053274;28;20427;-93
2022/03/04 06:27:33;;;;;;;76.13;39.13;;;;;;;2.86;84.76;99191.50;5057186;28;20599;-92
2022/03/04 06:29:59;;;;;;;57.93;30.73;;;;;;;1.19;83.91;98916.63;5055904;28;20487;-93
2022/03/04 06:32:24;;;;;;;67.27;31.03;;;;;;;1.71;82.89;98958.59;5058719;28;20217;-93
2022/03/04 06:34:50;;;;;;;56.20;27.47;;;;;;;3.05;82.54;99190.28;5044692;28;20276;-91
2022/03/04 06:37:15;;;;;;;84.47;35.50;;;;;;;-1.57;83.41;98438.59;5059315;28;20191;-91
2022/03/04 06:39:41;;;;;;;73.07;31.47;;;;;;;1.98;83.11;99018.69;5032901;28;20237;-93
2022/03/04 06:42:08;;;;;;;68.43;31.50;;;;;;;-0.51;81.48;98530.84;5043643;28;20180;-91
2022/03/04 06:44:33;;;;;;;55.17;28.17;;;;;;;1.63;80.92;98894.81;5042343;28;20229;-91
2022/03/04 06:46:59;;;;;;;50.50;25.13;;;;;;;0.23;80.59;98658.94;5058971;28;20431;-90
2022/03/04 06:49:38;;;;;;;48.13;23.87;;;;;;;-0.94;80.88;98464.78;5060175;28;20175;-93
2022/03/04 06:52:03;;;;;;;44.27;21.93;;;;;;;1.34;80.90;98847.06;5040609;28;20192;-93
2022/03/04 06:54:29;;;;;;;46.57;24.50;;;;;;;0.12;82.04;98658.94;5058412;28;20787;-92
2022/03/04 06:56:54;;;;;;;52.13;28.17;;;;;;;-0.44;80.61;98511.50;5040212;28;20169;-92
2022/03/04 06:59:20;;;;;;;78.70;37.90;;;;;;;-1.51;80.40;98329.88;5060035;28;20727;-92
2022/03/04 07:01:45;;;;;;;61.33;31.13;;;;;;;3.12;79.80;99104.91;5040413;28;20167;-91
2022/03/04 07:04:11;;;;;;;62.60;31.17;;;;;;;2.48;78.40;98943.13;5043481;28;20178;-91
2022/03/04 07:06:36;;;;;;;97.63;43.93;;;;;;;2.62;77.53;98929.06;5062395;28;20227;-92
2022/03/04 07:09:02;;;;;;;70.73;35.93;;;;;;;0.65;77.08;98580.53;5042044;28;20161;-93
2022/03/04 07:11:28;;;;;;;64.70;34.27;;;;;;;4.33;76.13;99186.44;5057227;28;20198;-92
2022/03/04 07:13:53;;;;;;;42.90;22.57;;;;;;;0.35;76.65;98512.97;5041349;28;20181;-92
2022/03/04 07:16:19;;;;;;;54.23;27.17;;;;;;;-0.48;77.76;98451.53;5042935;28;20165;-93
2022/03/04 07:18:44;;;;;;;46.97;26.20;;;;;;;1.85;78.08;98804.84;5040630;28;20165;-92
2022/03/04 07:21:11;;;;;;;48.63;24.03;;;;;;;2.32;76.37;98788.03;5040775;28;20180;-91
2022/03/04 07:23:36;;;;;;;42.57;22.80;;;;;;;0.59;74.30;98498.81;5043310;28;20227;-91
2022/03/04 07:26:03;;;;;;;136.73;39.10;;;;;;;4.58;74.69;99196.38;5041732;28;20415;-93
2022/03/04 07:28:28;;;;;;;57.07;25.37;;;;;;;2.27;74.25;98786.88;5044873;28;20218;-91
2022/03/04 07:30:54;;;;;;;116.10;49.73;;;;;;;0.56;73.85;98449.69;5048916;28;20496;-92
2022/03/04 07:33:20;;;;;;;64.33;31.63;;;;;;;4.74;73.40;99184.03;5049540;28;20173;-92
2022/03/04 07:35:45;;;;;;;46.00;23.50;;;;;;;4.17;73.71;99138.63;5055286;28;20181;-92
2022/03/04 07:38:12;;;;;;;46.07;24.30;;;;;;;4.07;75.23;99134.66;5040992;28;20172;-92
2022/03/04 07:40:39;;;;;;;47.30;24.10;;;;;;;2.13;75.53;98755.16;5041752;28;20688;-93
2022/03/04 07:43:05;;;;;;;49.23;24.97;;;;;;;4.88;74.05;99160.69;5040500;28;20422;-92
2022/03/04 07:45:30;;;;;;;47.10;24.40;;;;;;;1.77;71.58;98554.88;5057839;28;20416;-92
2022/03/04 07:47:55;;;;;;;81.23;38.60;;;;;;;5.80;70.69;99158.75;5040117;28;20418;-92
2022/03/04 07:50:21;;;;;;;102.93;45.10;;;;;;;4.53;68.24;98947.94;5056350;28;20169;-94
2022/03/04 07:52:46;;;;;;;69.03;35.63;;;;;;;3.94;65.04;98808.28;5059097;28;20197;-91
2022/03/04 07:55:14;;;;;;;67.67;33.67;;;;;;;2.62;65.11;98622.66;5040543;28;20177;-93
2022/03/04 07:57:39;;;;;;;56.67;29.80;;;;;;;3.22;65.30;98707.13;5040624;28;20170;-93
2022/03/04 08:00:08;;;;;;;77.70;39.03;;;;;;;4.11;65.30;98795.13;5037982;28;21041;-92
2022/03/04 08:02:34;;;;;;;63.50;32.77;;;;;;;5.51;64.43;99005.56;5062966;28;20166;-92
2022/03/04 08:04:59;;;;;;;60.30;31.50;;;;;;;5.20;62.91;98930.19;5058478;28;20949;-92
2022/03/04 08:07:25;;;;;;;57.87;29.30;;;;;;;5.50;62.17;98958.63;5047051;28;20271;-93
2022/03/04 08:09:50;;;;;;;55.77;26.53;;;;;;;3.04;62.00;98506.03;5049061;28;20174;-91
2022/03/04 08:12:16;;;;;;;59.27;29.33;;;;;;;7.05;61.78;99180.09;5065921;28;20194;-93
2022/03/04 08:14:41;;;;;;;63.00;31.87;;;;;;;3.90;61.57;98578.56;5048915;28;20183;-91
2022/03/04 08:17:09;;;;;;;67.43;34.07;;;;;;;7.65;60.36;99153.84;5063565;28;20157;-90
2022/03/04 08:19:35;;;;;;;45.73;24.60;;;;;;;7.47;59.24;99166.38;5061379;28;20913;-92
2022/03/04 08:22:02;;;;;;;51.33;27.53;;;;;;;7.62;59.63;99162.13;5062920;28;20146;-92
2022/03/04 08:24:28;;;;;;;59.00;32.37;;;;;;;8.07;58.63;99165.22;5039827;28;20418;-92
2022/03/04 08:26:53;;;;;;;61.40;32.93;;;;;;;6.29;57.59;98863.34;5042770;28;20404;-92
2022/03/04 08:29:19;;;;;;;54.70;29.20;;;;;;;8.05;57.78;99179.38;5057445;28;20204;-93
2022/03/04 08:31:45;;;;;;;42.03;23.63;;;;;;;4.48;56.95;98550.88;5039320;28;20197;-92
2022/03/04 08:34:10;;;;;;;45.37;24.60;;;;;;;7.65;56.22;98960.75;5039802;28;20173;-91
2022/03/04 08:36:36;;;;;;;43.00;25.70;;;;;;;8.49;55.07;99118.56;5038731;28;20563;-92
2022/03/04 08:39:05;;;;;;;49.03;27.00;;;;;;;8.90;56.18;99160.03;5021069;28;20387;-91
2022/03/04 08:41:32;;;;;;;48.13;24.93;;;;;;;7.65;54.35;98860.00;5040191;28;20185;-89
2022/03/04 08:43:58;;;;;;;44.60;23.57;;;;;;;9.08;54.06;99138.97;5039822;28;20641;-90
2022/03/04 08:46:24;;;;;;;38.10;21.53;;;;;;;8.37;53.41;98962.47;5056439;28;20158;-91
2022/03/04 08:48:49;;;;;;;45.83;25.63;;;;;;;9.77;52.77;99156.34;5019675;28;20174;-89
2022/03/04 08:51:15;;;;;;;36.93;19.23;;;;;;;9.81;52.71;99170.81;5047620;28;20198;-91
2022/03/04 08:53:41;;;;;;;33.23;18.90;;;;;;;7.59;50.81;98743.84;5039412;28;20231;-91
2022/03/04 08:56:07;;;;;;;34.47;19.43;;;;;;;7.75;50.72;98787.38;5015350;28;20186;-91
2022/03/04 08:58:32;;;;;;;34.00;18.70;;;;;;;7.73;50.89;98876.34;5035086;28;20195;-89
2022/03/04 09:00:58;;;;;;;40.37;22.43;;;;;;;9.57;50.18;99056.06;5031194;28;20741;-91
2022/03/04 09:03:24;;;;;;;33.87;19.93;;;;;;;10.38;49.20;99155.56;5000201;28;20174;-91
2022/03/04 09:05:50;;;;;;;48.67;28.30;;;;;;;8.20;48.87;98766.69;5014969;28;20228;-90
2022/03/04 09:08:15;;;;;;;50.93;27.23;;;;;;;9.72;48.77;98971.66;5037135;28;20178;-91
2022/03/04 09:10:40;;;;;;;38.67;22.07;;;;;;;11.07;47.65;99164.22;5017936;28;20174;-92
2022/03/04 09:13:06;;;;;;;39.97;21.43;;;;;;;9.43;47.23;98877.00;5017638;28;20286;-91
2022/03/04 09:15:32;;;;;;;34.80;19.40;;;;;;;10.82;46.99;99170.00;5034992;28;20186;-91
2022/03/04 09:18:02;;;;;;;71.90;41.83;;;;;;;9.95;47.32;99003.75;5040669;28;20201;-91
2022/03/04 09:20:27;;;;;;;28.47;16.40;;;;;;;9.16;46.27;98824.53;5042688;28;20170;-92
2022/03/04 09:22:55;;;;;;;24.07;15.03;;;;;;;9.24;46.05;98858.50;5027020;28;20173;-92
2022/03/04 09:25:22;;;;;;;33.17;18.60;;;;;;;7.98;46.75;98698.50;5024230;28;20174;-94
2022/03/04 09:27:50;;;;;;;30.37;16.87;;;;;;;10.24;46.89;99026.81;5041688;28;20182;-92
2022/03/04 09:30:16;;;;;;;25.73;15.93;;;;;;;11.00;46.58;99180.84;5027876;28;20162;-94
2022/03/04 09:32:42;;;;;;;28.63;16.47;;;;;;;11.06;46.09;99201.34;5025996;28;20258;-93
2022/03/04 09:35:09;;;;;;;32.57;17.63;;;;;;;7.77;46.01;98600.22;5033766;28;20185;-92
2022/03/04 09:37:38;;;;;;;30.27;17.93;;;;;;;7.55;46.11;98611.03;5023393;28;20186;-92
2022/03/04 09:40:06;;;;;;;32.47;18.60;;;;;;;8.97;46.76;98852.34;5032927;28;20233;-93
2022/03/04 09:42:44;;;;;;;27.93;17.87;;;;;;;8.03;46.70;98651.69;5058444;28;20169;-91
2022/03/04 09:45:10;;;;;;;31.47;18.00;;;;;;;8.50;45.97;98648.59;5039436;28;20188;-91
2022/03/04 09:47:35;;;;;;;119.23;51.10;;;;;;;9.80;45.65;98899.50;5056878;28;20234;-91
2022/03/04 09:50:02;;;;;;;26.57;15.40;;;;;;;9.42;43.91;98832.31;5056594;28;20173;-93
2022/03/04 09:52:30;;;;;;;34.73;19.53;;;;;;;10.51;45.04;99036.34;5052932;28;20245;-91
2022/03/04 09:54:56;;;;;;;25.93;15.37;;;;;;;11.68;44.12;99169.81;5039768;28;20219;-91
2022/03/04 09:57:21;;;;;;;30.20;17.80;;;;;;;11.96;43.31;99176.75;5057248;28;20178;-93
2022/03/04 09:59:47;;;;;;;32.70;18.43;;;;;;;8.79;43.18;98605.13;5060681;28;20185;-94
2022/03/04 10:02:14;;;;;;;31.70;20.00;;;;;;;10.53;42.50;98836.44;5061723;28;20169;-92
2022/03/04 10:04:40;;;;;;;29.43;17.63;;;;;;;9.42;42.36;98616.75;5061928;28;20179;-91
2022/03/04 10:07:20;;;;;;;22.00;15.23;;;;;;;11.08;42.12;98819.75;5060567;28;20169;-90
2022/03/04 10:09:50;;;;;;;25.43;15.40;;;;;;;12.09;41.07;98950.53;5061315;28;20256;-91
2022/03/04 10:12:18;;;;;;;38.93;22.87;;;;;;;9.69;39.87;98543.56;5060093;28;20280;-92
2022/03/04 10:15:10;;;;;;;26.17;15.87;;;;;;;12.86;40.57;99115.38;5059589;28;20173;-93
2022/03/04 10:17:37;;;;;;;37.63;21.27;;;;;;;10.51;41.21;98779.88;5060732;28;20169;-92
2022/03/04 10:20:09;;;;;;;27.43;17.00;;;;;;;11.72;41.28;98989.13;5059425;28;20185;-92
2022/03/04 10:22:42;;;;;;;22.77;14.67;;;;;;;10.13;40.51;98684.13;5063650;28;20172;-92
2022/03/04 10:25:26;;;;;;;26.23;15.60;;;;;;;13.00;39.88;99136.97;5049436;28;20176;-92
2022/03/04 10:27:52;;;;;;;28.50;16.13;;;;;;;12.06;39.64;98946.25;5051182;28;20169;-92
2022/03/04 10:30:31;;;;;;;27.30;15.87;;;;;;;12.90;40.29;99135.00;5056908;28;20172;-90
2022/03/04 10:33:07;;;;;;;24.90;17.10;;;;;;;11.56;40.19;98888.00;5041476;28;20261;-91
2022/03/04 10:35:33;;;;;;;29.57;18.33;;;;;;;11.54;40.03;98837.25;5039671;28;20195;-90
2022/03/04 10:37:59;;;;;;;37.97;24.60;;;;;;;9.80;40.79;98593.66;5059051;28;20687;-92
2022/03/04 10:40:28;;;;;;;21.97;13.70;;;;;;;12.68;40.16;99140.22;5046141;28;20709;-92
2022/03/04 10:43:05;;;;;;;24.83;16.07;;;;;;;12.07;41.13;99124.72;5036443;28;20599;-92
2022/03/04 10:45:36;;;;;;;26.47;15.67;;;;;;;12.38;41.11;99112.22;5055024;28;20187;-94
2022/03/04 10:48:07;;;;;;;28.07;16.27;;;;;;;12.30;40.65;99042.56;5053154;28;20174;-92
2022/03/04 10:50:40;;;;;;;26.63;16.33;;;;;;;11.33;40.41;98929.50;5051467;28;20173;-92
2022/03/04 10:53:15;;;;;;;33.37;20.33;;;;;;;12.71;40.53;99117.47;5055843;28;20210;-93
2022/03/04 10:55:46;;;;;;;24.97;15.87;;;;;;;10.18;40.09;98705.38;5035573;28;20173;-92
2022/03/04 10:58:25;;;;;;;31.27;18.53;;;;;;;11.65;40.38;98891.69;5035759;28;20170;-94
2022/03/04 11:00:56;;;;;;;29.23;15.63;;;;;;;10.52;40.58;98768.94;5039203;28;20174;-95
2022/03/04 11:03:30;;;;;;;29.50;17.37;;;;;;;12.80;40.61;99110.13;5044929;28;20237;-93
2022/03/04 11:05:59;;;;;;;26.10;15.73;;;;;;;9.83;39.76;98532.25;5039098;28;20272;-92
2022/03/04 11:08:25;;;;;;;22.70;14.77;;;;;;;10.30;40.04;98605.44;5034683;28;20923;-92
2022/03/04 11:10:53;;;;;;;38.07;23.13;;;;;;;11.88;40.25;98950.75;5034275;28;20226;-91
2022/03/04 11:13:21;;;;;;;27.10;16.77;;;;;;;10.78;41.26;98782.44;5034326;28;20194;-92
2022/03/04 11:15:51;;;;;;;29.00;16.43;;;;;;;10.08;40.53;98619.03;5034684;28;20177;-92
2022/03/04 11:18:21;;;;;;;28.93;16.60;;;;;;;10.03;40.48;98666.06;5035916;28;20174;-91
2022/03/04 11:20:49;;;;;;;26.00;15.60;;;;;;;9.94;40.70;98640.47;5034267;28;20202;-91